FNGI

Ngjiva Pereira Airport

Ngiva, Angola
TAF FNGI 212300Z 2200/2212 VRB03KT 9000 FEW018 BKN030 TEMPO 2203/2207 5000 TSRA SCT018 FEW023CB BKN025 BECMG 2210/2212 08008KT 8000 FEW018 BKN040
Issued Valid From Valid To
Jan-21 @ 23:00 UTC
(2 hours ago)
Jan-22 @ 00:00 UTC
(43 minutes ago)
Jan-22 @ 12:00 UTC
(in 11 hours)
Jan-22 @ 00:00 to Jan-22 @ 10:00
TAF FNGI 212300Z 2200/2212 VRB03KT 9000 FEW018 BKN030
Wind Visibility Clouds
Variable at 3 knots 8,996 meters
  • Few at 1,800' AGL
  • Broken at 3,000' AGL
Temporary Jan-22 @ 03:00 to Jan-22 @ 07:00
TEMPO 2203/2207 5000 TSRA SCT018 FEW023CB BKN025
Visibility Clouds Conditions
5,005 meters
  • Scattered at 1,800' AGL
  • Few at 2,300' AGL
  • Broken at 2,500' AGL
  • Thunderstorm
  • Rain
Becoming Jan-22 @ 10:00 to Jan-22 @ 12:00
BECMG 2210/2212 08008KT 8000 FEW018 BKN040
Wind Visibility Clouds
80° at 8 knots 7,998 meters
  • Few at 1,800' AGL
  • Broken at 4,000' AGL
TAF FNGI 212300Z 2200/2212 VRB03KT 9000 FEW018 BKN030 TEMPO 2203/2207 5000 TSRA SCT018 FEW023CB BKN025 BECMG 2210/2212 08008KT 8000 FEW018 BKN040
Issued Jan-21 @ 23:00 UTC
(2 hours ago)
Valid From Jan-22 @ 00:00 UTC
(43 minutes ago)
Valid To Jan-22 @ 12:00 UTC
(in 11 hours)
Jan-22 @ 00:00 - Jan-22 @ 10:00
Wind Visibility
Variable at 3 knots 8,996 meters
Clouds
  • Few at 1,800' AGL
  • Broken at 3,000' AGL
Temporary Jan-22 @ 03:00 - Jan-22 @ 07:00
Clouds
  • Scattered at 1,800' AGL
  • Few at 2,300' AGL
  • Broken at 2,500' AGL
Conditions
  • Thunderstorm
  • Rain
Becoming Jan-22 @ 10:00 - Jan-22 @ 12:00
Wind Visibility
80° at 8 knots 7,998 meters
Clouds
  • Few at 1,800' AGL
  • Broken at 4,000' AGL